Leavenworth, WA

11:47 AM PST on December 03, 2016 (GMT -0800)
Ski View Condos | | Change Station

Elev 1247 ft 47.61 °N, 120.66 °W | Updated 44 seconds ago

Partly Cloudy
Partly Cloudy
48.7 °F
Feels Like 49 °F
N
2.7
Wind Variable Wind from North
Gusts 4.9 mph

Today
High -- | Low -- °F
--% Chance of Precip.
Yesterday
High -- | Low -- °F
Precip. -- in
Pressure 30.19 in
Visibility 9.0 miles
Clouds Few 100 ft
Windchill 49 °F
Dew Point 32 °F
Humidity 53%
Rainfall 0.00 in
Snow Depth Not available.
7:33 AM 4:12 PM
Waxing Crescent, 16% visible
METAR KEAT 031855Z AUTO 09003KT 9SM FEW001 03/01 A3016 RMK AO2 SLP222 T00280011
Pressure 30.19 in
Visibility 9.0 miles
Clouds Few 100 ft
Windchill 49 °F
Dew Point 32 °F
Humidity 53%
Rainfall 0.00 in
Snow Depth Not available.
7:33 AM 4:12 PM
Waxing Crescent, 16% visible
METAR KEAT 031855Z AUTO 09003KT 9SM FEW001 03/01 A3016 RMK AO2 SLP222 T00280011

10-Day Weather Forecast

Almanac

Astronomy

Dec. 03, 2016 Rise Set
Actual Time
Civil Twilight
Nautical Twilight
Astronomical Twilight
Moon
Length of Visible Light
Length of Day
Tomorrow will be .
, % of the Moon is Illuminated

Today's Extremes

State Highs State Lows

Community

WunderPhotos

Upload Photos

1,955,481 photos uploaded!

WunderBlog® & News

Nearby

Air Quality

  Air Quality AQ Index Pollutant
Not available.

Snow Depth

Station Depth Elevation

Earthquake Activity

City Distance Mag. Time & Date
Minimum magnitude displayed is 2.5.

Coastal Water Temperatures

Place Temperature

Stations

Nearby Weather Stations

Station Location Temp. Windchill Dew Point Humidity Wind Precip. Elev Updated Type
                   

Watches & Warnings

There are currently no watches in effect.